sensor_id;sensor_type;location;lat;lon;timestamp;P1;durP1;ratioP1;P2;durP2;ratioP2
38117;SDS011;23928;47.562;7.508;2024-03-07T00:02:15;9.10;;;6.03;;
38117;SDS011;23928;47.562;7.508;2024-03-07T00:04:42;9.03;;;6.10;;
38117;SDS011;23928;47.562;7.508;2024-03-07T00:07:11;9.00;;;6.70;;
38117;SDS011;23928;47.562;7.508;2024-03-07T00:09:37;8.47;;;6.33;;
38117;SDS011;23928;47.562;7.508;2024-03-07T00:12:03;8.27;;;6.40;;
38117;SDS011;23928;47.562;7.508;2024-03-07T00:14:31;8.23;;;6.10;;
38117;SDS011;23928;47.562;7.508;2024-03-07T00:16:57;8.90;;;6.63;;
38117;SDS011;23928;47.562;7.508;2024-03-07T00:19:24;8.63;;;5.83;;
38117;SDS011;23928;47.562;7.508;2024-03-07T00:21:55;9.37;;;6.27;;
38117;SDS011;23928;47.562;7.508;2024-03-07T00:24:21;8.67;;;6.40;;
38117;SDS011;23928;47.562;7.508;2024-03-07T00:26:47;11.20;;;6.67;;
38117;SDS011;23928;47.562;7.508;2024-03-07T00:29:16;11.63;;;7.13;;
38117;SDS011;23928;47.562;7.508;2024-03-07T00:31:47;9.50;;;6.63;;
38117;SDS011;23928;47.562;7.508;2024-03-07T00:34:13;11.73;;;7.13;;
38117;SDS011;23928;47.562;7.508;2024-03-07T00:36:41;11.27;;;7.30;;
38117;SDS011;23928;47.562;7.508;2024-03-07T00:39:07;9.10;;;6.43;;
38117;SDS011;23928;47.562;7.508;2024-03-07T00:41:39;8.20;;;6.47;;
38117;SDS011;23928;47.562;7.508;2024-03-07T00:44:06;9.10;;;7.10;;
38117;SDS011;23928;47.562;7.508;2024-03-07T00:46:34;10.60;;;6.93;;
38117;SDS011;23928;47.562;7.508;2024-03-07T00:49:02;10.27;;;7.07;;
38117;SDS011;23928;47.562;7.508;2024-03-07T00:51:28;10.40;;;7.40;;
38117;SDS011;23928;47.562;7.508;2024-03-07T00:53:54;9.03;;;7.10;;
38117;SDS011;23928;47.562;7.508;2024-03-07T00:56:20;9.87;;;7.40;;
38117;SDS011;23928;47.562;7.508;2024-03-07T00:58:47;11.53;;;7.57;;
38117;SDS011;23928;47.562;7.508;2024-03-07T01:01:13;10.63;;;7.10;;
38117;SDS011;23928;47.562;7.508;2024-03-07T01:03:40;10.40;;;7.27;;
38117;SDS011;23928;47.562;7.508;2024-03-07T01:06:06;14.10;;;8.27;;
38117;SDS011;23928;47.562;7.508;2024-03-07T01:08:33;11.93;;;7.70;;
38117;SDS011;23928;47.562;7.508;2024-03-07T01:11:00;13.83;;;8.60;;
38117;SDS011;23928;47.562;7.508;2024-03-07T01:13:25;11.80;;;8.40;;
38117;SDS011;23928;47.562;7.508;2024-03-07T01:15:51;11.07;;;7.97;;
38117;SDS011;23928;47.562;7.508;2024-03-07T01:18:16;13.80;;;8.80;;
38117;SDS011;23928;47.562;7.508;2024-03-07T01:20:42;11.80;;;8.60;;
38117;SDS011;23928;47.562;7.508;2024-03-07T01:23:08;12.53;;;7.83;;
38117;SDS011;23928;47.562;7.508;2024-03-07T01:25:33;13.00;;;8.00;;
38117;SDS011;23928;47.562;7.508;2024-03-07T01:28:00;11.87;;;8.20;;
38117;SDS011;23928;47.562;7.508;2024-03-07T01:30:25;12.50;;;7.83;;
38117;SDS011;23928;47.562;7.508;2024-03-07T01:32:53;12.90;;;8.60;;
38117;SDS011;23928;47.562;7.508;2024-03-07T01:35:19;13.83;;;8.80;;
38117;SDS011;23928;47.562;7.508;2024-03-07T01:37:45;11.97;;;8.53;;
38117;SDS011;23928;47.562;7.508;2024-03-07T01:40:10;12.30;;;8.63;;
38117;SDS011;23928;47.562;7.508;2024-03-07T01:42:36;13.93;;;8.90;;
38117;SDS011;23928;47.562;7.508;2024-03-07T01:45:02;12.27;;;8.87;;
38117;SDS011;23928;47.562;7.508;2024-03-07T01:47:28;14.20;;;9.13;;
38117;SDS011;23928;47.562;7.508;2024-03-07T01:49:54;13.97;;;8.93;;
38117;SDS011;23928;47.562;7.508;2024-03-07T01:52:20;13.63;;;9.27;;
38117;SDS011;23928;47.562;7.508;2024-03-07T01:54:47;15.10;;;10.23;;
38117;SDS011;23928;47.562;7.508;2024-03-07T01:57:13;16.60;;;9.70;;
38117;SDS011;23928;47.562;7.508;2024-03-07T01:59:41;15.57;;;9.30;;
38117;SDS011;23928;47.562;7.508;2024-03-07T02:02:08;12.97;;;8.90;;
38117;SDS011;23928;47.562;7.508;2024-03-07T02:04:33;12.63;;;9.03;;
38117;SDS011;23928;47.562;7.508;2024-03-07T02:06:59;13.00;;;9.87;;
38117;SDS011;23928;47.562;7.508;2024-03-07T02:09:24;13.70;;;9.27;;
38117;SDS011;23928;47.562;7.508;2024-03-07T02:11:50;14.57;;;9.30;;
38117;SDS011;23928;47.562;7.508;2024-03-07T02:14:16;14.93;;;9.40;;
38117;SDS011;23928;47.562;7.508;2024-03-07T02:16:41;14.87;;;10.43;;
38117;SDS011;23928;47.562;7.508;2024-03-07T02:19:07;12.07;;;8.97;;
38117;SDS011;23928;47.562;7.508;2024-03-07T02:21:39;15.67;;;10.80;;
38117;SDS011;23928;47.562;7.508;2024-03-07T02:24:05;14.43;;;9.47;;
38117;SDS011;23928;47.562;7.508;2024-03-07T02:26:30;14.47;;;9.70;;
38117;SDS011;23928;47.562;7.508;2024-03-07T02:28:56;16.37;;;10.97;;
38117;SDS011;23928;47.562;7.508;2024-03-07T02:31:22;15.37;;;10.90;;
38117;SDS011;23928;47.562;7.508;2024-03-07T02:34:00;15.93;;;10.80;;
38117;SDS011;23928;47.562;7.508;2024-03-07T02:36:26;14.83;;;10.60;;
38117;SDS011;23928;47.562;7.508;2024-03-07T02:38:52;15.47;;;10.83;;
38117;SDS011;23928;47.562;7.508;2024-03-07T02:41:18;19.33;;;10.93;;
38117;SDS011;23928;47.562;7.508;2024-03-07T02:43:43;15.43;;;10.63;;
38117;SDS011;23928;47.562;7.508;2024-03-07T02:46:09;13.97;;;10.03;;
38117;SDS011;23928;47.562;7.508;2024-03-07T02:48:36;17.93;;;10.50;;
38117;SDS011;23928;47.562;7.508;2024-03-07T02:51:02;15.13;;;10.00;;
38117;SDS011;23928;47.562;7.508;2024-03-07T02:53:30;16.10;;;11.13;;
38117;SDS011;23928;47.562;7.508;2024-03-07T02:55:57;14.77;;;10.57;;
38117;SDS011;23928;47.562;7.508;2024-03-07T02:58:23;13.00;;;9.40;;
38117;SDS011;23928;47.562;7.508;2024-03-07T03:00:49;17.43;;;11.23;;
38117;SDS011;23928;47.562;7.508;2024-03-07T03:03:28;19.00;;;11.73;;
38117;SDS011;23928;47.562;7.508;2024-03-07T03:05:57;15.17;;;10.40;;
38117;SDS011;23928;47.562;7.508;2024-03-07T03:08:23;16.67;;;11.13;;
38117;SDS011;23928;47.562;7.508;2024-03-07T03:10:49;16.90;;;10.97;;
38117;SDS011;23928;47.562;7.508;2024-03-07T03:13:16;15.43;;;11.03;;
38117;SDS011;23928;47.562;7.508;2024-03-07T03:15:42;16.93;;;10.90;;
38117;SDS011;23928;47.562;7.508;2024-03-07T03:18:08;16.20;;;11.00;;
38117;SDS011;23928;47.562;7.508;2024-03-07T03:20:34;16.77;;;10.53;;
38117;SDS011;23928;47.562;7.508;2024-03-07T03:23:04;16.07;;;10.60;;
38117;SDS011;23928;47.562;7.508;2024-03-07T03:25:30;16.47;;;12.00;;
38117;SDS011;23928;47.562;7.508;2024-03-07T03:28:00;20.80;;;11.67;;
38117;SDS011;23928;47.562;7.508;2024-03-07T03:30:29;18.47;;;11.80;;
38117;SDS011;23928;47.562;7.508;2024-03-07T03:32:55;15.27;;;9.90;;
38117;SDS011;23928;47.562;7.508;2024-03-07T03:35:20;15.00;;;10.63;;
38117;SDS011;23928;47.562;7.508;2024-03-07T03:37:46;17.23;;;11.33;;
38117;SDS011;23928;47.562;7.508;2024-03-07T03:40:12;17.70;;;10.83;;
38117;SDS011;23928;47.562;7.508;2024-03-07T03:42:38;16.10;;;11.13;;
38117;SDS011;23928;47.562;7.508;2024-03-07T03:45:10;18.90;;;12.17;;
38117;SDS011;23928;47.562;7.508;2024-03-07T03:47:40;16.93;;;11.23;;
38117;SDS011;23928;47.562;7.508;2024-03-07T03:50:07;18.90;;;11.40;;
38117;SDS011;23928;47.562;7.508;2024-03-07T03:52:35;18.23;;;11.60;;
38117;SDS011;23928;47.562;7.508;2024-03-07T03:55:01;17.00;;;11.60;;
38117;SDS011;23928;47.562;7.508;2024-03-07T03:57:27;17.97;;;10.97;;
38117;SDS011;23928;47.562;7.508;2024-03-07T03:59:54;16.50;;;11.63;;
38117;SDS011;23928;47.562;7.508;2024-03-07T04:02:21;15.27;;;11.23;;
38117;SDS011;23928;47.562;7.508;2024-03-07T04:04:47;19.23;;;12.33;;
38117;SDS011;23928;47.562;7.508;2024-03-07T04:07:14;16.70;;;11.13;;
38117;SDS011;23928;47.562;7.508;2024-03-07T04:09:41;19.10;;;12.57;;
38117;SDS011;23928;47.562;7.508;2024-03-07T04:12:07;18.43;;;12.37;;
38117;SDS011;23928;47.562;7.508;2024-03-07T04:14:42;19.40;;;12.30;;
38117;SDS011;23928;47.562;7.508;2024-03-07T04:17:08;17.33;;;11.33;;
38117;SDS011;23928;47.562;7.508;2024-03-07T04:19:37;20.90;;;12.40;;
38117;SDS011;23928;47.562;7.508;2024-03-07T04:22:07;20.17;;;12.97;;
38117;SDS011;23928;47.562;7.508;2024-03-07T04:24:36;19.83;;;12.53;;
38117;SDS011;23928;47.562;7.508;2024-03-07T04:27:02;22.53;;;13.53;;
38117;SDS011;23928;47.562;7.508;2024-03-07T04:29:31;20.73;;;12.97;;
38117;SDS011;23928;47.562;7.508;2024-03-07T04:31:58;21.53;;;13.53;;
38117;SDS011;23928;47.562;7.508;2024-03-07T04:34:24;20.50;;;13.53;;
38117;SDS011;23928;47.562;7.508;2024-03-07T04:36:49;19.77;;;13.30;;
38117;SDS011;23928;47.562;7.508;2024-03-07T04:39:15;22.47;;;13.70;;
38117;SDS011;23928;47.562;7.508;2024-03-07T04:41:53;19.07;;;12.87;;
38117;SDS011;23928;47.562;7.508;2024-03-07T04:44:19;19.23;;;13.07;;
38117;SDS011;23928;47.562;7.508;2024-03-07T04:46:49;22.40;;;13.07;;
38117;SDS011;23928;47.562;7.508;2024-03-07T04:49:20;20.30;;;12.63;;
38117;SDS011;23928;47.562;7.508;2024-03-07T04:51:49;17.20;;;12.53;;
38117;SDS011;23928;47.562;7.508;2024-03-07T04:54:19;20.20;;;14.17;;
38117;SDS011;23928;47.562;7.508;2024-03-07T04:56:45;19.50;;;12.77;;
38117;SDS011;23928;47.562;7.508;2024-03-07T04:59:11;19.87;;;13.07;;
38117;SDS011;23928;47.562;7.508;2024-03-07T05:01:38;17.50;;;12.43;;
38117;SDS011;23928;47.562;7.508;2024-03-07T05:04:07;19.77;;;12.73;;
38117;SDS011;23928;47.562;7.508;2024-03-07T05:06:33;20.10;;;12.53;;
38117;SDS011;23928;47.562;7.508;2024-03-07T05:09:01;21.67;;;13.23;;
38117;SDS011;23928;47.562;7.508;2024-03-07T05:11:28;22.40;;;13.60;;
38117;SDS011;23928;47.562;7.508;2024-03-07T05:13:58;19.63;;;12.73;;
38117;SDS011;23928;47.562;7.508;2024-03-07T05:16:27;22.73;;;13.33;;
38117;SDS011;23928;47.562;7.508;2024-03-07T05:18:53;22.23;;;13.33;;
38117;SDS011;23928;47.562;7.508;2024-03-07T05:21:20;21.53;;;13.13;;
38117;SDS011;23928;47.562;7.508;2024-03-07T05:23:57;23.00;;;13.17;;
38117;SDS011;23928;47.562;7.508;2024-03-07T05:26:29;21.20;;;13.47;;
38117;SDS011;23928;47.562;7.508;2024-03-07T05:28:59;20.23;;;13.07;;
38117;SDS011;23928;47.562;7.508;2024-03-07T05:31:30;22.53;;;13.67;;
38117;SDS011;23928;47.562;7.508;2024-03-07T05:34:00;20.67;;;12.93;;
38117;SDS011;23928;47.562;7.508;2024-03-07T05:36:33;20.03;;;13.90;;
38117;SDS011;23928;47.562;7.508;2024-03-07T05:39:08;25.17;;;14.27;;
38117;SDS011;23928;47.562;7.508;2024-03-07T05:41:35;25.60;;;14.80;;
38117;SDS011;23928;47.562;7.508;2024-03-07T05:44:04;21.37;;;13.80;;
38117;SDS011;23928;47.562;7.508;2024-03-07T05:46:34;25.60;;;14.30;;
38117;SDS011;23928;47.562;7.508;2024-03-07T05:49:07;25.13;;;14.33;;
38117;SDS011;23928;47.562;7.508;2024-03-07T05:51:33;22.10;;;12.53;;
38117;SDS011;23928;47.562;7.508;2024-03-07T05:53:58;26.83;;;15.93;;
38117;SDS011;23928;47.562;7.508;2024-03-07T05:56:24;26.53;;;15.03;;
38117;SDS011;23928;47.562;7.508;2024-03-07T05:58:49;24.50;;;15.27;;
38117;SDS011;23928;47.562;7.508;2024-03-07T06:01:16;24.97;;;15.27;;
38117;SDS011;23928;47.562;7.508;2024-03-07T06:03:43;25.43;;;15.17;;
38117;SDS011;23928;47.562;7.508;2024-03-07T06:06:09;24.37;;;15.43;;
38117;SDS011;23928;47.562;7.508;2024-03-07T06:08:36;24.37;;;14.70;;
38117;SDS011;23928;47.562;7.508;2024-03-07T06:11:04;25.03;;;15.17;;
38117;SDS011;23928;47.562;7.508;2024-03-07T06:13:30;24.03;;;14.97;;
38117;SDS011;23928;47.562;7.508;2024-03-07T06:15:56;25.80;;;15.67;;
38117;SDS011;23928;47.562;7.508;2024-03-07T06:18:21;26.73;;;15.50;;
38117;SDS011;23928;47.562;7.508;2024-03-07T06:20:47;26.80;;;16.27;;
38117;SDS011;23928;47.562;7.508;2024-03-07T06:23:13;26.00;;;15.30;;
38117;SDS011;23928;47.562;7.508;2024-03-07T06:25:41;28.60;;;16.27;;
38117;SDS011;23928;47.562;7.508;2024-03-07T06:28:15;25.67;;;15.17;;
38117;SDS011;23928;47.562;7.508;2024-03-07T06:30:42;27.53;;;16.23;;
38117;SDS011;23928;47.562;7.508;2024-03-07T06:33:12;27.37;;;16.17;;
38117;SDS011;23928;47.562;7.508;2024-03-07T06:35:38;27.83;;;15.90;;
38117;SDS011;23928;47.562;7.508;2024-03-07T06:38:05;25.53;;;16.40;;
38117;SDS011;23928;47.562;7.508;2024-03-07T06:40:31;30.13;;;15.90;;
38117;SDS011;23928;47.562;7.508;2024-03-07T06:42:58;26.90;;;15.37;;
38117;SDS011;23928;47.562;7.508;2024-03-07T06:45:24;25.93;;;14.77;;
38117;SDS011;23928;47.562;7.508;2024-03-07T06:47:50;26.30;;;15.20;;
38117;SDS011;23928;47.562;7.508;2024-03-07T06:50:17;29.07;;;15.23;;
38117;SDS011;23928;47.562;7.508;2024-03-07T06:52:45;25.50;;;15.03;;
38117;SDS011;23928;47.562;7.508;2024-03-07T06:55:17;27.60;;;15.77;;
38117;SDS011;23928;47.562;7.508;2024-03-07T06:57:44;31.13;;;16.43;;
38117;SDS011;23928;47.562;7.508;2024-03-07T07:00:11;26.07;;;15.20;;
38117;SDS011;23928;47.562;7.508;2024-03-07T07:02:37;25.73;;;14.90;;
38117;SDS011;23928;47.562;7.508;2024-03-07T07:05:04;26.10;;;15.40;;
38117;SDS011;23928;47.562;7.508;2024-03-07T07:07:36;27.23;;;15.50;;
38117;SDS011;23928;47.562;7.508;2024-03-07T07:10:06;28.43;;;15.97;;
38117;SDS011;23928;47.562;7.508;2024-03-07T07:12:35;29.53;;;16.77;;
38117;SDS011;23928;47.562;7.508;2024-03-07T07:15:01;29.53;;;16.03;;
38117;SDS011;23928;47.562;7.508;2024-03-07T07:17:28;26.10;;;15.47;;
38117;SDS011;23928;47.562;7.508;2024-03-07T07:19:54;32.27;;;16.47;;
38117;SDS011;23928;47.562;7.508;2024-03-07T07:22:21;25.97;;;15.43;;
38117;SDS011;23928;47.562;7.508;2024-03-07T07:24:47;30.70;;;17.10;;
38117;SDS011;23928;47.562;7.508;2024-03-07T07:27:12;27.63;;;16.50;;
38117;SDS011;23928;47.562;7.508;2024-03-07T07:29:38;32.07;;;17.73;;
38117;SDS011;23928;47.562;7.508;2024-03-07T07:32:04;29.87;;;18.67;;
38117;SDS011;23928;47.562;7.508;2024-03-07T07:34:30;26.77;;;15.87;;
38117;SDS011;23928;47.562;7.508;2024-03-07T07:36:56;30.40;;;16.83;;
38117;SDS011;23928;47.562;7.508;2024-03-07T07:39:22;29.40;;;16.33;;
38117;SDS011;23928;47.562;7.508;2024-03-07T07:41:47;27.40;;;15.73;;
38117;SDS011;23928;47.562;7.508;2024-03-07T07:44:13;24.60;;;15.10;;
38117;SDS011;23928;47.562;7.508;2024-03-07T07:46:39;27.70;;;15.40;;
38117;SDS011;23928;47.562;7.508;2024-03-07T07:49:05;28.70;;;15.33;;
38117;SDS011;23928;47.562;7.508;2024-03-07T07:51:31;26.27;;;15.60;;
38117;SDS011;23928;47.562;7.508;2024-03-07T07:53:57;23.37;;;14.40;;
38117;SDS011;23928;47.562;7.508;2024-03-07T07:56:23;27.87;;;15.63;;
38117;SDS011;23928;47.562;7.508;2024-03-07T07:58:49;27.20;;;14.80;;
38117;SDS011;23928;47.562;7.508;2024-03-07T08:01:16;32.10;;;17.10;;
38117;SDS011;23928;47.562;7.508;2024-03-07T08:03:42;25.13;;;14.53;;
38117;SDS011;23928;47.562;7.508;2024-03-07T08:06:10;25.60;;;15.07;;
38117;SDS011;23928;47.562;7.508;2024-03-07T08:08:36;29.30;;;15.70;;
38117;SDS011;23928;47.562;7.508;2024-03-07T08:11:02;29.00;;;15.97;;
38117;SDS011;23928;47.562;7.508;2024-03-07T08:13:28;27.50;;;14.60;;
38117;SDS011;23928;47.562;7.508;2024-03-07T08:15:53;27.77;;;15.60;;
38117;SDS011;23928;47.562;7.508;2024-03-07T08:18:19;25.87;;;13.87;;
38117;SDS011;23928;47.562;7.508;2024-03-07T08:20:45;28.07;;;15.70;;
38117;SDS011;23928;47.562;7.508;2024-03-07T08:23:11;28.47;;;14.90;;
38117;SDS011;23928;47.562;7.508;2024-03-07T08:25:40;26.50;;;14.43;;
38117;SDS011;23928;47.562;7.508;2024-03-07T08:28:06;31.73;;;14.43;;
38117;SDS011;23928;47.562;7.508;2024-03-07T08:30:32;23.40;;;13.53;;
38117;SDS011;23928;47.562;7.508;2024-03-07T08:32:59;26.83;;;15.17;;
38117;SDS011;23928;47.562;7.508;2024-03-07T08:35:28;22.80;;;13.37;;
38117;SDS011;23928;47.562;7.508;2024-03-07T08:37:56;26.43;;;14.57;;
38117;SDS011;23928;47.562;7.508;2024-03-07T08:40:29;26.40;;;13.77;;
38117;SDS011;23928;47.562;7.508;2024-03-07T08:42:59;23.67;;;14.07;;
38117;SDS011;23928;47.562;7.508;2024-03-07T08:45:26;24.00;;;13.50;;
38117;SDS011;23928;47.562;7.508;2024-03-07T08:47:52;25.00;;;14.43;;
38117;SDS011;23928;47.562;7.508;2024-03-07T08:50:22;27.33;;;14.57;;
38117;SDS011;23928;47.562;7.508;2024-03-07T08:52:48;22.20;;;13.23;;
38117;SDS011;23928;47.562;7.508;2024-03-07T08:55:15;25.03;;;13.57;;
38117;SDS011;23928;47.562;7.508;2024-03-07T08:57:42;21.27;;;12.90;;
38117;SDS011;23928;47.562;7.508;2024-03-07T09:00:11;24.07;;;13.30;;
38117;SDS011;23928;47.562;7.508;2024-03-07T09:02:47;23.80;;;13.23;;
38117;SDS011;23928;47.562;7.508;2024-03-07T09:05:15;25.50;;;14.30;;
38117;SDS011;23928;47.562;7.508;2024-03-07T09:07:41;23.40;;;13.97;;
38117;SDS011;23928;47.562;7.508;2024-03-07T09:10:07;25.13;;;14.63;;
38117;SDS011;23928;47.562;7.508;2024-03-07T09:12:32;26.90;;;13.93;;
38117;SDS011;23928;47.562;7.508;2024-03-07T09:14:58;23.50;;;13.40;;
38117;SDS011;23928;47.562;7.508;2024-03-07T09:17:23;21.60;;;13.10;;
38117;SDS011;23928;47.562;7.508;2024-03-07T09:19:49;26.00;;;13.60;;
38117;SDS011;23928;47.562;7.508;2024-03-07T09:22:15;19.90;;;12.43;;
38117;SDS011;23928;47.562;7.508;2024-03-07T09:24:40;22.47;;;12.77;;
38117;SDS011;23928;47.562;7.508;2024-03-07T09:27:06;20.93;;;12.90;;
38117;SDS011;23928;47.562;7.508;2024-03-07T09:29:32;20.37;;;12.57;;
38117;SDS011;23928;47.562;7.508;2024-03-07T09:31:57;22.77;;;12.33;;
38117;SDS011;23928;47.562;7.508;2024-03-07T09:34:24;24.00;;;13.73;;
38117;SDS011;23928;47.562;7.508;2024-03-07T09:36:50;22.50;;;12.93;;
38117;SDS011;23928;47.562;7.508;2024-03-07T09:39:19;21.57;;;12.53;;
38117;SDS011;23928;47.562;7.508;2024-03-07T09:41:44;22.90;;;12.60;;
38117;SDS011;23928;47.562;7.508;2024-03-07T09:44:17;22.03;;;13.10;;
38117;SDS011;23928;47.562;7.508;2024-03-07T09:46:48;21.00;;;12.83;;
38117;SDS011;23928;47.562;7.508;2024-03-07T09:49:20;22.40;;;13.40;;
38117;SDS011;23928;47.562;7.508;2024-03-07T09:51:47;21.03;;;12.70;;
38117;SDS011;23928;47.562;7.508;2024-03-07T09:54:17;23.63;;;13.43;;
38117;SDS011;23928;47.562;7.508;2024-03-07T09:56:44;22.43;;;12.50;;
38117;SDS011;23928;47.562;7.508;2024-03-07T09:59:11;19.90;;;12.73;;
38117;SDS011;23928;47.562;7.508;2024-03-07T10:01:40;17.90;;;11.07;;
38117;SDS011;23928;47.562;7.508;2024-03-07T10:04:11;19.33;;;11.43;;
38117;SDS011;23928;47.562;7.508;2024-03-07T10:06:39;19.17;;;10.87;;
38117;SDS011;23928;47.562;7.508;2024-03-07T10:09:10;19.20;;;11.43;;
38117;SDS011;23928;47.562;7.508;2024-03-07T10:11:38;19.17;;;11.13;;
38117;SDS011;23928;47.562;7.508;2024-03-07T10:14:07;20.30;;;10.93;;
38117;SDS011;23928;47.562;7.508;2024-03-07T10:16:34;18.53;;;10.93;;
38117;SDS011;23928;47.562;7.508;2024-03-07T10:18:59;19.40;;;11.80;;
38117;SDS011;23928;47.562;7.508;2024-03-07T10:21:29;17.77;;;10.93;;
38117;SDS011;23928;47.562;7.508;2024-03-07T10:24:07;19.07;;;11.70;;
38117;SDS011;23928;47.562;7.508;2024-03-07T10:26:34;17.53;;;10.70;;
38117;SDS011;23928;47.562;7.508;2024-03-07T10:29:00;19.93;;;11.40;;
38117;SDS011;23928;47.562;7.508;2024-03-07T10:31:30;16.90;;;11.13;;
38117;SDS011;23928;47.562;7.508;2024-03-07T10:34:00;17.43;;;11.03;;
38117;SDS011;23928;47.562;7.508;2024-03-07T10:36:29;17.37;;;10.90;;
38117;SDS011;23928;47.562;7.508;2024-03-07T10:38:59;17.63;;;11.47;;
38117;SDS011;23928;47.562;7.508;2024-03-07T10:41:37;17.13;;;10.40;;
38117;SDS011;23928;47.562;7.508;2024-03-07T10:44:36;17.63;;;11.53;;
38117;SDS011;23928;47.562;7.508;2024-03-07T10:47:06;16.50;;;10.77;;
38117;SDS011;23928;47.562;7.508;2024-03-07T10:49:36;18.33;;;10.53;;
38117;SDS011;23928;47.562;7.508;2024-03-07T10:52:10;17.30;;;11.07;;
38117;SDS011;23928;47.562;7.508;2024-03-07T10:54:48;15.53;;;9.97;;
38117;SDS011;23928;47.562;7.508;2024-03-07T10:57:28;17.30;;;11.00;;
38117;SDS011;23928;47.562;7.508;2024-03-07T11:00:00;16.90;;;10.43;;
38117;SDS011;23928;47.562;7.508;2024-03-07T11:02:49;19.67;;;11.97;;
38117;SDS011;23928;47.562;7.508;2024-03-07T11:05:18;18.40;;;11.60;;
38117;SDS011;23928;47.562;7.508;2024-03-07T11:07:44;21.40;;;12.17;;
38117;SDS011;23928;47.562;7.508;2024-03-07T11:10:11;18.40;;;11.10;;
38117;SDS011;23928;47.562;7.508;2024-03-07T11:12:38;17.77;;;11.13;;
38117;SDS011;23928;47.562;7.508;2024-03-07T11:15:06;18.27;;;11.07;;
38117;SDS011;23928;47.562;7.508;2024-03-07T11:17:41;17.23;;;11.57;;
38117;SDS011;23928;47.562;7.508;2024-03-07T11:20:18;17.70;;;11.07;;
38117;SDS011;23928;47.562;7.508;2024-03-07T11:22:45;16.87;;;10.60;;
38117;SDS011;23928;47.562;7.508;2024-03-07T11:25:11;18.60;;;10.60;;
38117;SDS011;23928;47.562;7.508;2024-03-07T11:27:37;16.87;;;11.37;;
38117;SDS011;23928;47.562;7.508;2024-03-07T11:30:04;20.17;;;11.13;;
38117;SDS011;23928;47.562;7.508;2024-03-07T11:32:34;18.70;;;11.70;;
38117;SDS011;23928;47.562;7.508;2024-03-07T11:35:11;18.57;;;10.83;;
38117;SDS011;23928;47.562;7.508;2024-03-07T11:37:41;15.43;;;10.60;;
38117;SDS011;23928;47.562;7.508;2024-03-07T11:40:13;19.97;;;11.10;;
38117;SDS011;23928;47.562;7.508;2024-03-07T11:42:48;20.10;;;11.60;;
38117;SDS011;23928;47.562;7.508;2024-03-07T11:45:14;16.03;;;10.43;;
38117;SDS011;23928;47.562;7.508;2024-03-07T11:47:50;20.27;;;11.57;;
38117;SDS011;23928;47.562;7.508;2024-03-07T11:50:28;19.40;;;11.10;;
38117;SDS011;23928;47.562;7.508;2024-03-07T11:53:00;16.33;;;10.60;;
38117;SDS011;23928;47.562;7.508;2024-03-07T11:55:26;17.43;;;10.40;;
38117;SDS011;23928;47.562;7.508;2024-03-07T11:57:53;17.87;;;10.40;;
38117;SDS011;23928;47.562;7.508;2024-03-07T12:00:19;18.17;;;10.67;;
38117;SDS011;23928;47.562;7.508;2024-03-07T12:02:49;19.40;;;11.97;;
38117;SDS011;23928;47.562;7.508;2024-03-07T12:05:14;16.60;;;11.30;;
38117;SDS011;23928;47.562;7.508;2024-03-07T12:07:42;17.63;;;11.33;;
38117;SDS011;23928;47.562;7.508;2024-03-07T12:10:08;17.43;;;10.60;;
38117;SDS011;23928;47.562;7.508;2024-03-07T12:12:35;17.60;;;10.80;;
38117;SDS011;23928;47.562;7.508;2024-03-07T12:15:04;14.97;;;9.73;;
38117;SDS011;23928;47.562;7.508;2024-03-07T12:17:37;17.03;;;10.00;;
38117;SDS011;23928;47.562;7.508;2024-03-07T12:20:05;16.07;;;10.03;;
38117;SDS011;23928;47.562;7.508;2024-03-07T12:22:50;17.87;;;10.93;;
38117;SDS011;23928;47.562;7.508;2024-03-07T12:25:18;17.40;;;10.60;;
38117;SDS011;23928;47.562;7.508;2024-03-07T12:27:46;18.30;;;10.90;;
38117;SDS011;23928;47.562;7.508;2024-03-07T12:30:31;17.23;;;9.77;;
38117;SDS011;23928;47.562;7.508;2024-03-07T12:33:01;15.20;;;9.57;;
38117;SDS011;23928;47.562;7.508;2024-03-07T12:35:32;14.60;;;9.53;;
38117;SDS011;23928;47.562;7.508;2024-03-07T12:37:58;18.10;;;9.60;;
38117;SDS011;23928;47.562;7.508;2024-03-07T12:40:24;18.27;;;10.53;;
38117;SDS011;23928;47.562;7.508;2024-03-07T12:42:54;16.53;;;10.17;;
38117;SDS011;23928;47.562;7.508;2024-03-07T12:45:19;14.00;;;9.07;;
38117;SDS011;23928;47.562;7.508;2024-03-07T12:47:48;13.70;;;9.63;;
38117;SDS011;23928;47.562;7.508;2024-03-07T12:50:19;13.23;;;8.87;;
38117;SDS011;23928;47.562;7.508;2024-03-07T12:52:48;11.77;;;7.93;;
38117;SDS011;23928;47.562;7.508;2024-03-07T12:55:17;15.47;;;7.97;;
38117;SDS011;23928;47.562;7.508;2024-03-07T12:57:47;13.93;;;7.47;;
38117;SDS011;23928;47.562;7.508;2024-03-07T13:00:14;11.73;;;8.17;;
38117;SDS011;23928;47.562;7.508;2024-03-07T13:02:47;12.37;;;8.33;;
38117;SDS011;23928;47.562;7.508;2024-03-07T13:05:13;13.43;;;8.07;;
38117;SDS011;23928;47.562;7.508;2024-03-07T13:07:44;20.30;;;13.27;;
38117;SDS011;23928;47.562;7.508;2024-03-07T13:10:11;15.90;;;9.53;;
38117;SDS011;23928;47.562;7.508;2024-03-07T13:12:40;13.37;;;8.20;;
38117;SDS011;23928;47.562;7.508;2024-03-07T13:15:08;15.57;;;9.17;;
38117;SDS011;23928;47.562;7.508;2024-03-07T13:17:35;12.83;;;7.70;;
38117;SDS011;23928;47.562;7.508;2024-03-07T13:20:01;14.80;;;8.13;;
38117;SDS011;23928;47.562;7.508;2024-03-07T13:22:27;30.00;;;16.00;;
38117;SDS011;23928;47.562;7.508;2024-03-07T13:24:52;28.80;;;17.53;;
38117;SDS011;23928;47.562;7.508;2024-03-07T13:27:18;30.97;;;18.07;;
38117;SDS011;23928;47.562;7.508;2024-03-07T13:29:53;32.87;;;19.20;;
38117;SDS011;23928;47.562;7.508;2024-03-07T13:32:18;29.00;;;17.70;;
38117;SDS011;23928;47.562;7.508;2024-03-07T13:34:44;25.23;;;15.63;;
38117;SDS011;23928;47.562;7.508;2024-03-07T13:37:10;24.80;;;14.70;;
38117;SDS011;23928;47.562;7.508;2024-03-07T13:39:38;31.63;;;17.27;;
38117;SDS011;23928;47.562;7.508;2024-03-07T13:42:04;29.23;;;16.93;;
38117;SDS011;23928;47.562;7.508;2024-03-07T13:44:30;28.60;;;18.07;;
38117;SDS011;23928;47.562;7.508;2024-03-07T13:46:55;33.60;;;19.73;;
38117;SDS011;23928;47.562;7.508;2024-03-07T13:49:24;35.70;;;19.17;;
38117;SDS011;23928;47.562;7.508;2024-03-07T13:51:53;33.97;;;17.53;;
38117;SDS011;23928;47.562;7.508;2024-03-07T13:54:25;26.07;;;15.30;;
38117;SDS011;23928;47.562;7.508;2024-03-07T13:57:23;25.23;;;13.67;;
38117;SDS011;23928;47.562;7.508;2024-03-07T14:00:14;23.40;;;13.87;;
38117;SDS011;23928;47.562;7.508;2024-03-07T14:14:12;30.97;;;17.20;;
38117;SDS011;23928;47.562;7.508;2024-03-07T14:20:28;20.73;;;12.20;;
38117;SDS011;23928;47.562;7.508;2024-03-07T14:26:14;14.20;;;8.30;;
38117;SDS011;23928;47.562;7.508;2024-03-07T14:31:45;15.57;;;8.60;;
38117;SDS011;23928;47.562;7.508;2024-03-07T14:37:11;15.07;;;9.03;;
38117;SDS011;23928;47.562;7.508;2024-03-07T14:39:44;12.90;;;7.47;;
38117;SDS011;23928;47.562;7.508;2024-03-07T14:42:14;13.73;;;8.60;;
38117;SDS011;23928;47.562;7.508;2024-03-07T14:44:42;14.33;;;8.00;;
38117;SDS011;23928;47.562;7.508;2024-03-07T14:47:11;13.73;;;8.90;;
38117;SDS011;23928;47.562;7.508;2024-03-07T14:49:38;11.63;;;7.67;;
38117;SDS011;23928;47.562;7.508;2024-03-07T14:52:05;13.97;;;8.27;;
38117;SDS011;23928;47.562;7.508;2024-03-07T14:54:35;13.20;;;8.57;;
38117;SDS011;23928;47.562;7.508;2024-03-07T14:57:05;16.63;;;8.33;;